createdAt,value
2022-11-28T00:00:33.632Z,3.53
2022-11-28T00:03:01.275Z,4.07
2022-11-28T00:05:28.103Z,3.70
2022-11-28T00:07:55.642Z,3.92
2022-11-28T00:10:22.555Z,4.20
2022-11-28T00:12:49.176Z,4.03
2022-11-28T00:15:15.829Z,4.20
2022-11-28T00:17:42.413Z,4.18
2022-11-28T00:20:09.337Z,3.92
2022-11-28T00:22:36.082Z,3.95
2022-11-28T00:25:02.651Z,3.97
2022-11-28T00:27:29.269Z,3.67
2022-11-28T00:29:56.945Z,4.30
2022-11-28T00:32:23.753Z,3.80
2022-11-28T00:34:50.431Z,4.22
2022-11-28T00:37:17.013Z,4.88
2022-11-28T00:39:43.673Z,4.50
2022-11-28T00:42:10.226Z,4.22
2022-11-28T00:44:36.805Z,4.10
2022-11-28T00:47:03.417Z,4.45
2022-11-28T00:49:30.024Z,4.40
2022-11-28T00:51:56.613Z,4.47
2022-11-28T00:54:23.188Z,4.05
2022-11-28T00:56:49.796Z,4.05
2022-11-28T00:59:16.466Z,4.30
2022-11-28T01:01:44.068Z,4.55
2022-11-28T01:04:13.357Z,4.30
2022-11-28T01:06:48.203Z,3.92
2022-11-28T01:09:19.258Z,4.55
2022-11-28T01:11:46.874Z,3.88
2022-11-28T01:14:13.610Z,4.07
2022-11-28T01:16:40.251Z,4.00
2022-11-28T01:19:07.346Z,4.28
2022-11-28T01:21:34.825Z,3.97
2022-11-28T01:24:01.430Z,3.80
2022-11-28T01:26:29.598Z,4.43
2022-11-28T01:28:57.261Z,3.97
2022-11-28T01:31:26.791Z,4.28
2022-11-28T01:33:54.207Z,3.72
2022-11-28T01:36:21.711Z,4.22
2022-11-28T01:38:48.853Z,3.88
2022-11-28T01:41:17.540Z,4.07
2022-11-28T01:43:59.388Z,4.53
2022-11-28T01:46:26.029Z,3.78
2022-11-28T01:48:53.754Z,3.55
2022-11-28T01:51:20.675Z,4.30
2022-11-28T01:53:47.673Z,4.07
2022-11-28T01:56:15.943Z,3.97
2022-11-28T01:58:44.836Z,4.22
2022-11-28T02:01:11.731Z,4.30
2022-11-28T02:03:44.195Z,3.88
2022-11-28T02:06:13.731Z,4.13
2022-11-28T02:08:40.849Z,4.55
2022-11-28T02:11:25.964Z,4.43
2022-11-28T02:13:58.011Z,4.03
2022-11-28T02:16:46.179Z,4.50
2022-11-28T02:19:45.828Z,4.90
2022-11-28T02:22:47.576Z,4.97
2022-11-28T02:25:31.920Z,4.30
2022-11-28T02:28:35.600Z,4.38
2022-11-28T02:31:08.212Z,4.40
2022-11-28T02:33:39.393Z,4.53
2022-11-28T02:36:05.919Z,4.88
2022-11-28T02:39:12.440Z,5.15
2022-11-28T02:41:50.502Z,4.25
2022-11-28T02:44:19.197Z,4.78
2022-11-28T02:47:14.420Z,4.97
2022-11-28T02:49:48.864Z,4.20
2022-11-28T02:52:21.244Z,4.40
2022-11-28T02:54:49.608Z,4.32
2022-11-28T02:57:16.293Z,4.47
2022-11-28T02:59:42.854Z,4.40
2022-11-28T03:02:15.443Z,5.38
2022-11-28T03:04:54.188Z,4.93
2022-11-28T03:07:45.190Z,5.43
2022-11-28T03:10:30.644Z,5.47
2022-11-28T03:13:29.609Z,5.20
2022-11-28T03:16:02.464Z,4.93
2022-11-28T03:18:40.581Z,4.88
2022-11-28T03:21:15.666Z,4.88
2022-11-28T03:24:34.908Z,5.72
2022-11-28T03:27:16.583Z,4.53
2022-11-28T03:29:55.779Z,4.95
2022-11-28T03:32:32.212Z,4.75
2022-11-28T03:35:04.303Z,5.07
2022-11-28T03:37:34.168Z,5.45
2022-11-28T03:40:05.724Z,6.38
2022-11-28T03:42:37.027Z,5.65
2022-11-28T03:45:11.337Z,6.32
2022-11-28T03:47:44.926Z,6.38
2022-11-28T03:50:21.922Z,5.93
2022-11-28T03:52:59.006Z,4.53
2022-11-28T03:55:31.114Z,4.53
2022-11-28T03:58:02.934Z,4.80
2022-11-28T04:00:30.096Z,5.38
2022-11-28T04:03:14.005Z,4.90
2022-11-28T04:05:47.758Z,4.82
2022-11-28T04:08:19.870Z,4.88
2022-11-28T04:10:52.502Z,5.50
2022-11-28T04:13:24.229Z,5.60
2022-11-28T04:16:09.581Z,5.43
2022-11-28T04:18:42.180Z,5.63
2022-11-28T04:21:20.361Z,5.03
2022-11-28T04:23:48.153Z,5.40
2022-11-28T04:26:18.758Z,5.00
2022-11-28T04:28:47.376Z,5.03
2022-11-28T04:31:16.395Z,4.78
2022-11-28T04:33:44.983Z,5.22
2022-11-28T04:36:11.990Z,5.30
2022-11-28T04:38:40.914Z,5.95
2022-11-28T04:41:18.764Z,7.28
2022-11-28T04:43:53.753Z,12.32
2022-11-28T04:46:27.003Z,11.00
2022-11-28T04:48:54.534Z,9.07
2022-11-28T04:51:25.624Z,8.05
2022-11-28T04:54:15.105Z,6.00
2022-11-28T04:56:50.614Z,5.93
2022-11-28T04:59:17.810Z,5.22
2022-11-28T05:01:46.127Z,5.57
2022-11-28T05:04:14.113Z,6.18
2022-11-28T05:06:40.896Z,5.57
2022-11-28T05:09:07.603Z,5.82
2022-11-28T05:11:34.503Z,5.05
2022-11-28T05:14:01.216Z,5.07
2022-11-28T05:16:27.976Z,5.80
2022-11-28T05:18:54.701Z,5.80
2022-11-28T05:21:21.327Z,5.70
2022-11-28T05:23:48.239Z,6.07
2022-11-28T05:26:17.615Z,5.75
2022-11-28T05:28:49.727Z,5.30
2022-11-28T05:31:17.984Z,6.55
2022-11-28T05:33:44.693Z,5.55
2022-11-28T05:36:13.665Z,6.47
2022-11-28T05:38:41.079Z,6.72
2022-11-28T05:41:07.920Z,5.43
2022-11-28T05:43:34.823Z,6.32
2022-11-28T05:46:01.465Z,5.65
2022-11-28T05:48:28.144Z,5.80
2022-11-28T05:50:54.825Z,5.43
2022-11-28T05:53:21.542Z,5.00
2022-11-28T05:55:48.451Z,5.88
2022-11-28T05:58:15.186Z,5.35
2022-11-28T06:00:41.935Z,5.65
2022-11-28T06:03:08.566Z,6.00
2022-11-28T06:05:42.614Z,5.78
2022-11-28T06:08:11.932Z,5.38
2022-11-28T06:10:38.708Z,5.05
2022-11-28T06:13:05.484Z,6.00
2022-11-28T06:15:37.276Z,5.70
2022-11-28T06:18:04.723Z,5.32
2022-11-28T06:20:31.315Z,5.65
2022-11-28T06:22:58.330Z,5.70
2022-11-28T06:25:24.964Z,5.82
2022-11-28T06:27:51.564Z,5.65
2022-11-28T06:30:18.267Z,5.22
2022-11-28T06:32:44.919Z,5.60
2022-11-28T06:35:11.678Z,5.47
2022-11-28T06:37:38.375Z,5.50
2022-11-28T06:40:05.944Z,5.53
2022-11-28T06:42:34.421Z,5.50
2022-11-28T06:45:02.092Z,5.22
2022-11-28T06:47:28.782Z,4.97
2022-11-28T06:49:55.757Z,4.80
2022-11-28T06:52:22.373Z,5.60
2022-11-28T06:54:49.537Z,5.07
2022-11-28T06:57:16.303Z,4.88
2022-11-28T06:59:43.310Z,5.38
2022-11-28T07:02:11.342Z,5.65
2022-11-28T07:04:38.168Z,4.75
2022-11-28T07:07:04.807Z,4.93
2022-11-28T07:09:31.495Z,4.93
2022-11-28T07:11:58.204Z,5.22
2022-11-28T07:14:24.902Z,5.05
2022-11-28T07:16:51.660Z,4.68
2022-11-28T07:19:22.743Z,5.50
2022-11-28T07:21:50.277Z,5.57
2022-11-28T07:24:18.545Z,5.32
2022-11-28T07:26:46.476Z,5.10
2022-11-28T07:29:17.862Z,5.00
2022-11-28T07:31:45.127Z,5.03
2022-11-28T07:34:11.833Z,5.38
2022-11-28T07:36:38.699Z,4.65
2022-11-28T07:39:08.757Z,4.75
2022-11-28T07:41:35.502Z,4.80
2022-11-28T07:44:03.476Z,5.40
2022-11-28T07:46:31.432Z,5.25
2022-11-28T07:48:58.160Z,4.90
2022-11-28T07:51:27.045Z,5.03
2022-11-28T07:53:54.377Z,5.03
2022-11-28T07:56:24.875Z,6.00
2022-11-28T07:58:51.608Z,4.93
2022-11-28T08:01:24.951Z,5.15
2022-11-28T08:03:53.044Z,5.22
2022-11-28T08:06:22.475Z,4.97
2022-11-28T08:08:49.956Z,5.10
2022-11-28T08:11:17.918Z,5.07
2022-11-28T08:13:45.049Z,4.93
2022-11-28T08:16:17.245Z,5.43
2022-11-28T08:18:44.168Z,5.53
2022-11-28T08:21:16.388Z,5.47
2022-11-28T08:23:45.280Z,5.38
2022-11-28T08:26:15.537Z,5.70
2022-11-28T08:28:43.138Z,5.55
2022-11-28T08:31:12.535Z,5.45
2022-11-28T08:33:39.430Z,6.03
2022-11-28T08:36:07.195Z,5.57
2022-11-28T08:38:33.869Z,5.28
2022-11-28T08:41:09.435Z,5.68
2022-11-28T08:43:37.365Z,5.63
2022-11-28T08:46:05.517Z,5.68
2022-11-28T08:48:33.047Z,6.28
2022-11-28T08:50:59.661Z,5.68
2022-11-28T08:53:27.656Z,5.60
2022-11-28T08:55:54.620Z,5.22
2022-11-28T08:58:21.302Z,5.45
2022-11-28T09:00:48.010Z,5.70
2022-11-28T09:03:16.762Z,6.28
2022-11-28T09:05:46.045Z,5.15
2022-11-28T09:08:13.682Z,5.90
2022-11-28T09:10:41.411Z,5.65
2022-11-28T09:13:09.161Z,5.22
2022-11-28T09:15:39.837Z,5.32
2022-11-28T09:18:06.562Z,5.20
2022-11-28T09:20:33.980Z,5.60
2022-11-28T09:23:01.855Z,5.93
2022-11-28T09:25:28.535Z,5.25
2022-11-28T09:27:55.190Z,5.97
2022-11-28T09:30:22.854Z,5.18
2022-11-28T09:32:52.592Z,5.90
2022-11-28T09:35:19.240Z,5.82
2022-11-28T09:37:45.862Z,5.65
2022-11-28T09:40:19.250Z,5.72
2022-11-28T09:42:47.043Z,6.47
2022-11-28T09:45:16.277Z,5.97
2022-11-28T09:47:46.424Z,5.47
2022-11-28T09:50:20.965Z,5.47
2022-11-28T09:53:11.985Z,5.78
2022-11-28T09:56:00.749Z,5.80
2022-11-28T09:58:41.893Z,5.63
2022-11-28T10:01:53.029Z,5.43
2022-11-28T10:04:25.006Z,5.95
2022-11-28T10:07:12.930Z,5.70
2022-11-28T10:09:48.462Z,6.00
2022-11-28T10:12:33.203Z,5.55
2022-11-28T10:15:26.255Z,6.10
2022-11-28T10:18:04.508Z,6.20
2022-11-28T10:20:39.359Z,5.47
2022-11-28T10:23:31.936Z,5.07
2022-11-28T10:26:11.973Z,5.20
2022-11-28T10:28:41.858Z,5.32
2022-11-28T10:31:30.886Z,4.75
2022-11-28T10:33:57.450Z,5.18
2022-11-28T10:36:50.610Z,4.82
2022-11-28T10:39:17.285Z,5.40
2022-11-28T10:42:12.362Z,5.05
2022-11-28T10:45:02.155Z,4.88
2022-11-28T10:47:31.787Z,5.78
2022-11-28T10:50:32.156Z,5.65
2022-11-28T10:53:30.953Z,5.15
2022-11-28T10:56:08.438Z,5.60
2022-11-28T10:58:55.076Z,6.13
2022-11-28T11:01:22.119Z,5.50
2022-11-28T11:03:49.130Z,5.57
2022-11-28T11:06:15.824Z,5.47
2022-11-28T11:08:42.602Z,4.90
2022-11-28T11:11:28.738Z,5.43
2022-11-28T11:14:10.006Z,5.63
2022-11-28T11:16:49.949Z,4.95
2022-11-28T11:19:34.517Z,4.93
2022-11-28T11:22:14.463Z,5.80
2022-11-28T11:24:41.186Z,5.57
2022-11-28T11:27:18.521Z,5.18
2022-11-28T11:29:49.233Z,6.05
2022-11-28T11:32:21.933Z,5.18
2022-11-28T11:34:48.924Z,5.85
2022-11-28T11:37:38.198Z,5.03
2022-11-28T11:40:18.110Z,5.38
2022-11-28T11:42:53.149Z,5.63
2022-11-28T11:45:32.252Z,5.57
2022-11-28T11:47:59.077Z,6.13
2022-11-28T11:50:31.082Z,5.75
2022-11-28T11:53:06.956Z,5.80
2022-11-28T11:55:40.757Z,6.38
2022-11-28T11:58:11.526Z,6.28
2022-11-28T12:00:39.672Z,6.13
2022-11-28T12:03:15.430Z,5.97
2022-11-28T12:06:12.726Z,5.38
2022-11-28T12:08:41.660Z,7.05
2022-11-28T12:11:17.432Z,7.03
2022-11-28T12:13:45.560Z,6.25
2022-11-28T12:16:30.308Z,5.97
2022-11-28T12:19:21.608Z,5.10
2022-11-28T12:22:04.528Z,6.20
2022-11-28T12:24:39.343Z,6.32
2022-11-28T12:27:26.330Z,5.47
2022-11-28T12:30:14.407Z,6.07
2022-11-28T12:33:18.903Z,5.90
2022-11-28T12:36:06.402Z,5.60
2022-11-28T12:39:05.461Z,6.78
2022-11-28T12:42:02.083Z,6.18
2022-11-28T12:44:56.621Z,5.72
2022-11-28T12:47:45.012Z,5.57
2022-11-28T12:50:32.130Z,5.93
2022-11-28T12:53:20.918Z,6.85
2022-11-28T12:56:00.631Z,6.45
2022-11-28T12:58:41.255Z,6.55
2022-11-28T13:01:35.918Z,5.95
2022-11-28T13:04:13.700Z,5.90
2022-11-28T13:06:49.453Z,5.47
2022-11-28T13:09:35.211Z,6.10
2022-11-28T13:12:07.644Z,6.22
2022-11-28T13:14:34.242Z,6.65
2022-11-28T13:17:29.095Z,6.43
2022-11-28T13:20:04.233Z,7.30
2022-11-28T13:22:53.117Z,6.93
2022-11-28T13:25:25.274Z,6.10
2022-11-28T13:28:03.613Z,7.30
2022-11-28T13:30:34.737Z,6.95
2022-11-28T13:33:11.774Z,7.32
2022-11-28T13:35:40.940Z,7.05
2022-11-28T13:41:28.518Z,6.78
2022-11-28T13:44:04.831Z,6.93
2022-11-28T13:46:33.559Z,6.55
2022-11-28T13:49:14.446Z,6.20
2022-11-28T13:51:42.162Z,6.70
2022-11-28T13:54:32.118Z,6.25
2022-11-28T13:57:05.505Z,7.10
2022-11-28T13:59:33.170Z,5.88
2022-11-28T14:02:02.126Z,5.60
2022-11-28T14:04:33.966Z,6.07
2022-11-28T14:07:05.685Z,5.57
2022-11-28T14:10:03.936Z,5.70
2022-11-28T14:12:56.792Z,5.22
2022-11-28T14:15:35.182Z,5.47
2022-11-28T14:18:39.332Z,6.53
2022-11-28T14:21:05.087Z,6.45
2022-11-28T14:23:39.775Z,5.35
2022-11-28T14:26:27.538Z,5.43
2022-11-28T14:28:55.484Z,5.28
2022-11-28T14:31:34.668Z,6.22
2022-11-28T14:34:06.842Z,6.30
2022-11-28T14:36:41.829Z,5.18
2022-11-28T14:39:33.053Z,6.07
2022-11-28T14:42:03.699Z,6.60
2022-11-28T14:44:50.708Z,6.03
2022-11-28T14:47:24.052Z,7.10
2022-11-28T14:50:06.027Z,6.45
2022-11-28T14:52:40.755Z,6.00
2022-11-28T14:55:12.327Z,6.05
2022-11-28T14:58:00.207Z,5.75
2022-11-28T15:00:28.633Z,5.50
2022-11-28T15:03:04.956Z,6.38
2022-11-28T15:05:53.226Z,5.63
2022-11-28T15:08:51.720Z,5.15
2022-11-28T15:11:42.854Z,5.95
2022-11-28T15:14:21.913Z,5.88
2022-11-28T15:17:00.860Z,5.20
2022-11-28T15:19:40.208Z,5.95
2022-11-28T15:22:30.081Z,5.90
2022-11-28T15:24:56.994Z,5.63
2022-11-28T15:27:26.234Z,5.97
2022-11-28T15:30:01.005Z,6.00
2022-11-28T15:32:30.516Z,6.05
2022-11-28T15:35:12.721Z,6.53
2022-11-28T15:37:55.617Z,6.22
2022-11-28T15:40:34.654Z,7.30
2022-11-28T15:43:06.640Z,6.70
2022-11-28T15:45:36.989Z,6.90
2022-11-28T15:48:05.890Z,8.10
2022-11-28T15:50:33.983Z,7.60
2022-11-28T15:53:20.562Z,7.78
2022-11-28T15:55:47.752Z,6.88
2022-11-28T15:58:34.020Z,7.22
2022-11-28T16:01:08.009Z,7.10
2022-11-28T16:03:43.828Z,7.90
2022-11-28T16:06:10.927Z,7.88
2022-11-28T16:08:47.631Z,7.95
2022-11-28T16:11:17.879Z,8.25
2022-11-28T16:13:44.680Z,7.53
2022-11-28T16:16:13.311Z,7.75
2022-11-28T16:18:44.487Z,7.68
2022-11-28T16:21:20.788Z,7.25
2022-11-28T16:23:47.594Z,7.47
2022-11-28T16:26:31.279Z,8.70
2022-11-28T16:29:09.478Z,8.05
2022-11-28T16:31:36.208Z,8.10
2022-11-28T16:34:03.453Z,8.73
2022-11-28T16:36:31.029Z,9.77
2022-11-28T16:39:16.479Z,10.05
2022-11-28T16:41:52.594Z,10.00
2022-11-28T16:44:22.374Z,10.18
2022-11-28T16:46:56.772Z,10.48
2022-11-28T16:49:37.309Z,9.82
2022-11-28T16:52:28.072Z,10.57
2022-11-28T16:54:55.839Z,10.30
2022-11-28T16:57:22.661Z,9.52
2022-11-28T16:59:53.563Z,9.77
2022-11-28T17:02:25.332Z,9.77
2022-11-28T17:04:53.448Z,10.18
2022-11-28T17:07:24.575Z,9.93
2022-11-28T17:09:51.464Z,10.60
2022-11-28T17:12:29.958Z,10.57
2022-11-28T17:14:58.307Z,10.52
2022-11-28T17:17:25.183Z,10.40
2022-11-28T17:19:52.051Z,8.80
2022-11-28T17:22:21.393Z,9.40
2022-11-28T17:24:49.108Z,9.50
2022-11-28T17:27:16.088Z,9.32
2022-11-28T17:29:43.002Z,8.95
2022-11-28T17:32:14.649Z,9.15
2022-11-28T17:34:46.226Z,9.63
2022-11-28T17:37:13.235Z,9.38
2022-11-28T17:39:40.066Z,10.18
2022-11-28T17:42:07.355Z,9.75
2022-11-28T17:44:36.343Z,9.43
2022-11-28T17:47:04.335Z,9.30
2022-11-28T17:49:31.572Z,9.15
2022-11-28T17:51:59.428Z,9.90
2022-11-28T17:54:27.285Z,9.15
2022-11-28T17:56:54.807Z,10.15
2022-11-28T17:59:27.114Z,10.90
2022-11-28T18:01:54.357Z,9.75
2022-11-28T18:04:24.210Z,10.10
2022-11-28T18:06:51.030Z,10.18
2022-11-28T18:09:17.796Z,10.38
2022-11-28T18:11:46.372Z,10.82
2022-11-28T18:14:13.845Z,11.00
2022-11-28T18:16:45.265Z,11.52
2022-11-28T18:19:13.569Z,10.70
2022-11-28T18:21:40.567Z,10.90
2022-11-28T18:24:07.854Z,10.60
2022-11-28T18:26:36.721Z,9.05
2022-11-28T18:29:06.960Z,10.77
2022-11-28T18:31:34.455Z,11.23
2022-11-28T18:34:03.484Z,11.98
2022-11-28T18:36:34.576Z,11.48
2022-11-28T18:39:04.549Z,12.48
2022-11-28T18:41:31.662Z,16.50
2022-11-28T18:44:02.663Z,19.08
2022-11-28T18:46:30.884Z,16.15
2022-11-28T18:48:58.802Z,17.60
2022-11-28T18:51:30.973Z,13.45
2022-11-28T18:53:58.379Z,12.32
2022-11-28T18:56:26.772Z,11.45
2022-11-28T18:58:54.796Z,10.82
2022-11-28T19:01:28.546Z,10.75
2022-11-28T19:04:09.272Z,10.77
2022-11-28T19:06:38.155Z,11.80
2022-11-28T19:09:07.358Z,10.88
2022-11-28T19:11:39.715Z,10.00
2022-11-28T19:14:10.017Z,8.70
2022-11-28T19:16:38.097Z,8.93
2022-11-28T19:19:06.592Z,9.15
2022-11-28T19:21:38.416Z,8.65
2022-11-28T19:24:12.557Z,9.23
2022-11-28T19:26:39.513Z,8.85
2022-11-28T19:29:06.670Z,9.27
2022-11-28T19:31:34.709Z,7.97
2022-11-28T19:34:05.905Z,8.05
2022-11-28T19:36:35.921Z,8.93
2022-11-28T19:39:05.090Z,9.00
2022-11-28T19:41:32.852Z,10.45
2022-11-28T19:44:02.062Z,10.13
2022-11-28T19:46:35.745Z,10.15
2022-11-28T19:49:13.238Z,10.25
2022-11-28T19:51:40.388Z,10.40
2022-11-28T19:54:07.434Z,10.10
2022-11-28T19:56:34.321Z,10.93
2022-11-28T19:59:01.953Z,11.10
2022-11-28T20:01:29.759Z,10.90
2022-11-28T20:03:59.714Z,10.10
2022-11-28T20:06:32.567Z,11.35
2022-11-28T20:09:14.428Z,11.90
2022-11-28T20:11:46.769Z,10.93
2022-11-28T20:14:28.598Z,11.40
2022-11-28T20:16:56.076Z,10.98
2022-11-28T20:19:34.848Z,11.00
2022-11-28T20:22:02.460Z,10.05
2022-11-28T20:24:31.037Z,10.27
2022-11-28T20:27:12.815Z,10.00
2022-11-28T20:29:39.997Z,10.60
2022-11-28T20:32:08.860Z,10.25
2022-11-28T20:37:19.479Z,10.18
2022-11-28T20:39:47.687Z,10.60
2022-11-28T20:42:14.445Z,10.48
2022-11-28T20:44:41.098Z,11.82
2022-11-28T20:47:11.019Z,10.88
2022-11-28T20:49:38.358Z,11.75
2022-11-28T20:52:05.577Z,11.15
2022-11-28T20:54:33.818Z,10.95
2022-11-28T20:59:47.257Z,13.60
2022-11-28T21:02:14.514Z,14.45
2022-11-28T21:04:42.636Z,13.80
2022-11-28T21:07:09.353Z,14.05
2022-11-28T21:09:36.057Z,13.75
2022-11-28T21:12:03.309Z,13.55
2022-11-28T21:14:29.981Z,14.05
2022-11-28T21:16:58.837Z,13.07
2022-11-28T21:19:25.882Z,14.45
2022-11-28T21:21:52.932Z,14.50
2022-11-28T21:24:23.172Z,14.18
2022-11-28T21:26:53.974Z,12.95
2022-11-28T21:29:22.225Z,13.50
2022-11-28T21:31:49.203Z,13.40
2022-11-28T21:34:16.847Z,14.10
2022-11-28T21:36:43.860Z,14.60
2022-11-28T21:39:16.793Z,14.48
2022-11-28T21:41:44.055Z,13.88
2022-11-28T21:44:10.904Z,15.20
2022-11-28T21:46:37.875Z,14.45
2022-11-28T21:49:05.651Z,14.68
2022-11-28T21:51:37.230Z,15.32
2022-11-28T21:54:04.321Z,15.68
2022-11-28T21:56:34.995Z,16.65
2022-11-28T21:59:02.307Z,16.05
2022-11-28T22:01:34.637Z,16.17
2022-11-28T22:04:03.226Z,16.05
2022-11-28T22:06:32.696Z,15.68
2022-11-28T22:08:59.936Z,14.63
2022-11-28T22:11:29.088Z,15.70
2022-11-28T22:13:55.831Z,17.90
2022-11-28T22:16:26.089Z,19.05
2022-11-28T22:18:55.709Z,18.45
2022-11-28T22:21:50.491Z,18.20
2022-11-28T22:24:10.334Z,17.42
2022-11-28T22:26:37.690Z,18.08
2022-11-28T22:29:05.980Z,19.02
2022-11-28T22:31:33.152Z,15.65
2022-11-28T22:34:00.265Z,16.83
2022-11-28T22:36:27.341Z,18.15
2022-11-28T22:38:55.645Z,15.93
2022-11-28T22:41:29.241Z,14.45
2022-11-28T22:44:00.675Z,17.83
2022-11-28T22:46:28.546Z,18.65
2022-11-28T22:48:55.630Z,16.77
2022-11-28T22:51:24.707Z,18.60
2022-11-28T22:53:55.892Z,18.80
2022-11-28T22:56:25.343Z,17.60
2022-11-28T22:58:52.176Z,18.13
2022-11-28T23:01:22.593Z,17.08
2022-11-28T23:03:50.022Z,16.95
2022-11-28T23:06:20.429Z,16.10
2022-11-28T23:08:53.866Z,16.42
2022-11-28T23:11:22.661Z,15.40
2022-11-28T23:13:50.228Z,13.98
2022-11-28T23:16:22.600Z,16.45
2022-11-28T23:18:51.190Z,16.30
2022-11-28T23:21:19.054Z,17.55
2022-11-28T23:23:46.162Z,17.52
2022-11-28T23:26:22.203Z,20.60
2022-11-28T23:28:50.174Z,17.85
2022-11-28T23:31:19.383Z,18.30
2022-11-28T23:33:46.600Z,17.23
2022-11-28T23:36:17.280Z,18.40
2022-11-28T23:38:45.489Z,17.17
2022-11-28T23:41:12.807Z,20.35
2022-11-28T23:43:39.894Z,20.48
2022-11-28T23:46:07.481Z,20.20
2022-11-28T23:48:34.287Z,20.38
2022-11-28T23:51:01.035Z,20.15
2022-11-28T23:53:27.723Z,18.52
2022-11-28T23:55:54.363Z,16.77
2022-11-28T23:58:21.186Z,15.68
